Terminal Aerodrome Forecast
Issued by NWS Shreveport, LA

Current Version | Previous Version | Text Only | Print | Product List | Glossary On
Versions: 1 2 3 4 5 6 7 8 9 10 11 12 13 14 15 16 17 18 19
000
FTUS44 KSHV 210525
TAFGGG
TAF
KGGG 210525Z 2106/2206 VRB03KT P6SM SCT250
     FM211500 11008KT P6SM BKN120
     FM212100 15008KT P6SM SCT050 BKN100
     FM220100 17005KT P6SM BKN060=

USA.gov is the U.S. government's official web portal to all federal, state and local government web resources and services.